Colwich, Kansas
Current Conditions -  °F | °C
As of 4:53 AM on Friday 19 Dec 2014 (Local Time) from KICT Reporting Station
Haze Haze  
Wind Chill: 26°   Ceiling: 500
Heat Index: 31°   Visibility: 5mi
Dew Point: 28°   Wind: 5mph
Humidity: 89%   Direction: 50°NE
Pressure: 30.2"   Gusts: NA
Location:  37.78°N, 97.54°W
Report Text: KICT 191053Z 05004KT 5SM BR OVC005 M01/M02 A3020 RMK AO2 SLP238 T10061022 $
Loading
Personal Weather Stations






























Interactive Weather Map New forecast layout! Learn more

10-Day Weather Forecast

Advertisements
Track Severe Weather on mobile